Time;durP1;ratioP1;P1;durP2;ratioP2;P2;SDS_P1;SDS_P2;PMS_P1;PMS_P2;Temp;Humidity;BMP_temperature;BMP_pressure;BME280_temperature;BME280_humidity;BME280_pressure;Samples;Min_cycle;Max_cycle;Signal;HPM_P1;HPM_P2
2022/07/15 00:01:38;;;;;;;0.93;0.60;;;22.10;1.00;;;;;;5077900;28;20955;-72
2022/07/15 00:04:06;;;;;;;1.00;0.70;;;22.10;1.00;;;;;;5077346;28;20510;-72
2022/07/15 00:06:33;;;;;;;2.30;0.60;;;22.00;1.00;;;;;;5074727;28;20489;-72
2022/07/15 00:09:01;;;;;;;1.30;0.60;;;21.80;1.00;;;;;;5073770;28;20450;-72
2022/07/15 00:11:28;;;;;;;1.40;0.60;;;21.70;1.00;;;;;;5075121;28;20542;-71
2022/07/15 00:13:55;;;;;;;0.60;0.50;;;21.80;1.00;;;;;;5075463;28;20670;-71
2022/07/15 00:16:22;;;;;;;0.80;0.60;;;21.80;1.00;;;;;;5075301;28;20468;-72
2022/07/15 00:18:49;;;;;;;0.67;0.50;;;21.70;1.00;;;;;;5076409;28;20466;-72
2022/07/15 00:21:16;;;;;;;0.90;0.60;;;21.80;1.00;;;;;;5077722;28;20504;-71
2022/07/15 00:23:43;;;;;;;1.20;0.70;;;21.70;1.00;;;;;;5077280;28;20450;-72
2022/07/15 00:26:12;;;;;;;1.20;0.60;;;21.60;1.00;;;;;;5076325;28;20461;-71
2022/07/15 00:28:39;;;;;;;0.70;0.50;;;21.50;1.00;;;;;;5077382;28;20533;-72
2022/07/15 00:31:06;;;;;;;1.20;0.67;;;21.30;1.00;;;;;;5077290;28;20565;-72
2022/07/15 00:33:33;;;;;;;0.83;0.60;;;21.20;1.00;;;;;;5077005;28;20450;-70
2022/07/15 00:36:00;;;;;;;1.10;0.60;;;21.30;1.00;;;;;;5076603;28;20864;-71
2022/07/15 00:38:27;;;;;;;1.10;0.70;;;21.10;1.00;;;;;;5077086;28;20475;-71
2022/07/15 00:40:54;;;;;;;1.20;0.60;;;21.10;1.00;;;;;;5077165;28;20827;-71
2022/07/15 00:43:22;;;;;;;0.80;0.60;;;21.10;1.00;;;;;;5076717;28;20443;-71
2022/07/15 00:45:49;;;;;;;1.03;0.63;;;21.20;1.00;;;;;;5077203;28;20450;-71
2022/07/15 00:48:16;;;;;;;0.80;0.67;;;21.10;1.00;;;;;;5077074;28;20482;-71
2022/07/15 00:50:43;;;;;;;1.30;0.60;;;21.10;1.00;;;;;;5076989;28;20512;-72
2022/07/15 00:53:16;;;;;;;1.27;0.70;;;21.10;1.00;;;;;;5077058;28;20482;-71
2022/07/15 00:55:45;;;;;;;0.80;0.50;;;21.00;1.00;;;;;;5076299;28;20863;-70
2022/07/15 00:58:16;;;;;;;0.70;0.60;;;20.90;1.00;;;;;;5076448;28;20820;-71
2022/07/15 01:00:45;;;;;;;0.73;0.50;;;20.90;1.00;;;;;;5077038;28;20497;-71
2022/07/15 01:03:12;;;;;;;2.87;0.67;;;21.00;1.00;;;;;;5076011;28;20611;-71
2022/07/15 01:05:40;;;;;;;2.30;0.50;;;21.10;1.00;;;;;;5076306;28;20481;-71
2022/07/15 01:08:07;;;;;;;0.80;0.60;;;21.10;1.00;;;;;;5076147;28;20494;-71
2022/07/15 01:10:36;;;;;;;1.27;0.60;;;21.10;1.00;;;;;;5076436;28;20516;-71
2022/07/15 01:13:04;;;;;;;0.80;0.50;;;21.10;1.00;;;;;;5076137;28;20450;-70
2022/07/15 01:15:32;;;;;;;0.90;0.60;;;21.00;1.00;;;;;;5076235;28;20786;-71
2022/07/15 01:18:02;;;;;;;0.80;0.60;;;21.00;1.00;;;;;;5075923;28;20549;-71
2022/07/15 01:20:30;;;;;;;2.10;0.70;;;20.90;1.00;;;;;;5076190;28;20446;-70
2022/07/15 01:23:00;;;;;;;1.30;0.60;;;20.90;1.00;;;;;;5076467;28;20493;-71
2022/07/15 01:25:28;;;;;;;0.70;0.50;;;21.00;1.00;;;;;;5076621;28;20829;-71
2022/07/15 01:27:55;;;;;;;2.50;1.27;;;21.10;1.00;;;;;;5076323;28;20512;-72
2022/07/15 01:30:22;;;;;;;1.10;0.60;;;21.00;1.00;;;;;;5076500;28;20493;-71
2022/07/15 01:32:49;;;;;;;0.80;0.57;;;21.10;1.00;;;;;;5076711;28;20898;-71
2022/07/15 01:35:16;;;;;;;0.90;0.60;;;21.00;1.00;;;;;;5076501;28;20517;-71
2022/07/15 01:37:43;;;;;;;1.97;0.50;;;21.00;1.00;;;;;;5076199;28;20820;-71
2022/07/15 01:40:13;;;;;;;0.70;0.50;;;20.90;1.00;;;;;;5075940;28;20933;-71
2022/07/15 01:42:40;;;;;;;4.63;0.60;;;20.80;1.00;;;;;;5076191;28;20485;-71
2022/07/15 01:45:08;;;;;;;1.47;0.50;;;20.70;1.00;;;;;;5076101;28;20816;-71
2022/07/15 01:47:42;;;;;;;0.80;0.57;;;20.70;1.00;;;;;;5076458;28;20477;-72
2022/07/15 01:50:08;;;;;;;0.70;0.50;;;20.70;1.00;;;;;;5076150;28;20533;-72
2022/07/15 01:52:35;;;;;;;0.90;0.50;;;20.70;1.00;;;;;;5076657;28;20485;-70
2022/07/15 01:55:02;;;;;;;1.03;0.60;;;20.80;1.00;;;;;;5076055;28;20529;-73
2022/07/15 01:57:30;;;;;;;1.10;0.60;;;20.80;1.00;;;;;;5075710;28;20817;-73
2022/07/15 01:59:57;;;;;;;0.80;0.50;;;20.90;1.00;;;;;;5075539;28;20497;-73
2022/07/15 02:02:24;;;;;;;0.80;0.60;;;20.80;1.00;;;;;;5076213;28;20766;-72
2022/07/15 02:04:51;;;;;;;0.70;0.60;;;20.70;1.00;;;;;;5076144;28;20811;-72
2022/07/15 02:07:18;;;;;;;0.70;0.40;;;20.70;1.00;;;;;;5075952;28;20815;-72
2022/07/15 02:09:45;;;;;;;0.70;0.43;;;20.70;1.00;;;;;;5076280;28;20550;-72
2022/07/15 02:12:12;;;;;;;0.60;0.50;;;20.60;1.00;;;;;;5075940;28;20921;-72
2022/07/15 02:14:41;;;;;;;1.57;0.60;;;20.50;1.00;;;;;;5076158;28;20493;-73
2022/07/15 02:17:08;;;;;;;1.10;0.60;;;20.40;1.00;;;;;;5075954;28;20833;-72
2022/07/15 02:19:35;;;;;;;1.83;0.60;;;20.30;1.00;;;;;;5075739;28;20464;-72
2022/07/15 02:22:02;;;;;;;2.47;0.50;;;20.10;1.00;;;;;;5075857;28;20893;-73
2022/07/15 02:24:29;;;;;;;1.80;0.50;;;19.90;1.00;;;;;;5075697;28;20543;-73
2022/07/15 02:26:56;;;;;;;0.80;0.60;;;19.70;1.00;;;;;;5076029;28;20508;-73
2022/07/15 02:29:22;;;;;;;0.70;0.50;;;19.60;1.00;;;;;;5075701;28;20474;-73
2022/07/15 02:31:51;;;;;;;0.70;0.50;;;19.70;1.00;;;;;;5078373;28;20493;-72
2022/07/15 02:34:18;;;;;;;0.97;0.60;;;19.70;1.00;;;;;;5079413;28;20498;-72
2022/07/15 02:36:45;;;;;;;1.70;0.50;;;19.80;1.00;;;;;;5078386;28;20513;-72
2022/07/15 02:39:12;;;;;;;0.80;0.50;;;19.80;1.00;;;;;;5078125;28;20488;-72
2022/07/15 02:41:39;;;;;;;0.90;0.60;;;19.90;1.00;;;;;;5079492;28;20486;-72
2022/07/15 02:44:05;;;;;;;0.93;0.40;;;19.80;1.00;;;;;;5078881;28;20474;-72
2022/07/15 02:46:32;;;;;;;0.80;0.60;;;19.80;1.00;;;;;;5079411;28;20474;-71
2022/07/15 02:49:01;;;;;;;0.70;0.60;;;19.80;1.00;;;;;;5079414;28;20443;-72
2022/07/15 02:51:27;;;;;;;0.80;0.60;;;19.80;1.00;;;;;;5079180;28;20950;-73
2022/07/15 02:53:54;;;;;;;1.17;0.70;;;19.80;1.00;;;;;;5078883;28;20902;-72
2022/07/15 02:56:21;;;;;;;1.17;0.60;;;19.80;1.00;;;;;;5079145;28;20517;-72
2022/07/15 02:58:48;;;;;;;0.70;0.60;;;19.90;1.00;;;;;;5079124;28;20957;-72
2022/07/15 03:01:15;;;;;;;1.17;0.50;;;19.90;1.00;;;;;;5079007;28;20458;-72
2022/07/15 03:03:42;;;;;;;0.80;0.60;;;20.00;1.00;;;;;;5078744;28;20453;-72
2022/07/15 03:06:10;;;;;;;1.17;0.60;;;20.00;1.00;;;;;;5079147;28;20493;-73
2022/07/15 03:08:37;;;;;;;0.97;0.63;;;20.00;1.00;;;;;;5078826;28;20482;-72
2022/07/15 03:11:04;;;;;;;0.60;0.50;;;19.70;1.00;;;;;;5079049;28;20479;-72
2022/07/15 03:13:31;;;;;;;0.80;0.60;;;19.60;1.00;;;;;;5078902;28;20473;-73
2022/07/15 03:15:58;;;;;;;0.80;0.70;;;19.50;1.00;;;;;;5077298;28;20852;-72
2022/07/15 03:18:25;;;;;;;0.80;0.57;;;19.40;1.00;;;;;;5077308;28;20909;-72
2022/07/15 03:20:52;;;;;;;0.97;0.60;;;19.30;1.00;;;;;;5076930;28;20921;-72
2022/07/15 03:23:20;;;;;;;0.70;0.50;;;19.30;1.00;;;;;;5076633;28;20929;-72
2022/07/15 03:25:48;;;;;;;0.93;0.70;;;19.20;1.00;;;;;;5077273;28;20552;-73
2022/07/15 03:28:15;;;;;;;0.80;0.60;;;19.20;1.00;;;;;;5077574;28;20457;-72
2022/07/15 03:30:41;;;;;;;0.90;0.60;;;19.20;1.00;;;;;;5078336;28;20485;-73
2022/07/15 03:33:08;;;;;;;0.90;0.60;;;19.10;1.00;;;;;;5078556;28;20896;-72
2022/07/15 03:35:35;;;;;;;1.93;0.60;;;19.10;1.00;;;;;;5078173;28;20610;-71
2022/07/15 03:38:02;;;;;;;1.77;0.57;;;19.00;1.00;;;;;;5078164;28;20504;-71
2022/07/15 03:40:30;;;;;;;1.00;0.60;;;18.90;1.00;;;;;;5077867;28;20474;-72
2022/07/15 03:42:57;;;;;;;1.10;0.70;;;18.90;1.00;;;;;;5077759;28;20450;-72
2022/07/15 03:45:24;;;;;;;0.90;0.60;;;18.90;1.00;;;;;;5077900;28;20739;-72
2022/07/15 03:47:51;;;;;;;0.87;0.60;;;18.80;1.00;;;;;;5078329;28;20485;-72
2022/07/15 03:50:18;;;;;;;0.70;0.50;;;18.80;1.00;;;;;;5077772;28;20481;-72
2022/07/15 03:52:45;;;;;;;0.70;0.50;;;18.80;1.00;;;;;;5077514;28;20508;-72
2022/07/15 03:55:12;;;;;;;2.30;0.67;;;18.80;1.00;;;;;;5077886;28;20933;-72
2022/07/15 03:57:40;;;;;;;2.87;0.60;;;18.80;1.00;;;;;;5077807;28;20894;-72
2022/07/15 04:00:08;;;;;;;1.70;0.60;;;18.80;1.00;;;;;;5077270;28;20489;-72
2022/07/15 04:02:35;;;;;;;1.40;0.70;;;18.80;1.00;;;;;;5076972;28;20446;-72
2022/07/15 04:05:02;;;;;;;0.93;0.60;;;18.90;1.00;;;;;;5078094;28;20485;-72
2022/07/15 04:07:29;;;;;;;0.70;0.50;;;18.90;1.00;;;;;;5076060;28;20438;-72
2022/07/15 04:09:56;;;;;;;1.53;0.70;;;18.80;1.00;;;;;;5076560;28;20792;-72
2022/07/15 04:12:23;;;;;;;0.70;0.50;;;18.80;1.00;;;;;;5076283;28;20489;-72
2022/07/15 04:14:51;;;;;;;1.10;0.67;;;18.70;1.00;;;;;;5076648;28;20550;-72
2022/07/15 04:17:18;;;;;;;1.53;0.90;;;18.70;1.00;;;;;;5076999;28;21000;-72
2022/07/15 04:19:45;;;;;;;0.97;0.70;;;18.90;1.00;;;;;;5076723;28;20462;-72
2022/07/15 04:22:12;;;;;;;1.10;0.60;;;19.00;1.00;;;;;;5076720;28;20762;-71
2022/07/15 04:24:39;;;;;;;0.80;0.60;;;19.00;1.00;;;;;;5076297;28;20549;-72
2022/07/15 04:27:06;;;;;;;2.00;0.70;;;19.00;1.00;;;;;;5077032;28;20450;-72
2022/07/15 04:29:35;;;;;;;1.03;0.70;;;19.00;1.00;;;;;;5075201;28;20465;-73
2022/07/15 04:32:04;;;;;;;0.90;0.60;;;19.00;1.00;;;;;;5074113;28;20454;-72
2022/07/15 04:34:31;;;;;;;1.07;0.80;;;19.00;1.00;;;;;;5073769;28;20491;-72
2022/07/15 04:36:58;;;;;;;0.80;0.70;;;19.00;1.00;;;;;;5073318;28;20652;-72
2022/07/15 04:39:25;;;;;;;0.90;0.70;;;19.00;1.00;;;;;;5073720;28;20510;-72
2022/07/15 04:41:52;;;;;;;1.30;0.60;;;19.00;1.00;;;;;;5072787;28;20482;-72
2022/07/15 04:44:19;;;;;;;0.90;0.57;;;19.10;1.00;;;;;;5074081;28;20462;-72
2022/07/15 04:46:46;;;;;;;1.30;0.50;;;19.00;1.00;;;;;;5075668;28;20442;-71
2022/07/15 04:51:58;;;;;;;1.07;0.60;;;19.00;1.00;;;;;;5075163;28;20569;-72
2022/07/15 04:54:25;;;;;;;0.70;0.60;;;19.00;1.00;;;;;;5076414;28;20484;-72
2022/07/15 04:56:52;;;;;;;1.00;0.60;;;19.00;1.00;;;;;;5077055;28;20517;-71
2022/07/15 04:59:19;;;;;;;1.03;0.70;;;19.00;1.00;;;;;;5076209;28;20493;-72
2022/07/15 05:01:46;;;;;;;1.37;0.60;;;19.10;1.00;;;;;;5076102;28;20446;-71
2022/07/15 05:04:14;;;;;;;0.70;0.50;;;19.00;1.00;;;;;;5076207;28;20934;-72
2022/07/15 05:06:41;;;;;;;0.90;0.70;;;19.00;1.00;;;;;;5076158;28;20815;-72
2022/07/15 05:09:08;;;;;;;1.10;1.00;;;19.00;1.00;;;;;;5075620;28;20744;-72
2022/07/15 05:11:35;;;;;;;1.07;0.60;;;19.00;1.00;;;;;;5074679;28;20810;-72
2022/07/15 05:14:02;;;;;;;1.80;0.70;;;19.10;1.00;;;;;;5075846;28;20455;-72
2022/07/15 05:16:30;;;;;;;3.23;0.87;;;19.10;1.00;;;;;;5074983;28;20486;-72
2022/07/15 05:18:57;;;;;;;1.00;0.60;;;19.00;1.00;;;;;;5075212;28;20504;-72
2022/07/15 05:21:25;;;;;;;0.80;0.60;;;18.90;1.00;;;;;;5075288;28;20535;-72
2022/07/15 05:23:52;;;;;;;1.10;0.67;;;18.70;1.00;;;;;;5078738;28;20537;-72
2022/07/15 05:26:19;;;;;;;1.60;0.60;;;18.80;1.00;;;;;;5074296;28;20623;-72
2022/07/15 05:28:46;;;;;;;0.80;0.60;;;19.00;1.00;;;;;;5076184;28;20473;-72
2022/07/15 05:31:13;;;;;;;0.80;0.60;;;19.20;1.00;;;;;;5077326;28;20819;-71
2022/07/15 05:33:40;;;;;;;1.20;0.60;;;19.20;1.00;;;;;;5077192;28;20952;-71
2022/07/15 05:36:12;;;;;;;1.30;0.67;;;19.30;1.00;;;;;;5077046;28;20580;-71
2022/07/15 05:38:41;;;;;;;4.43;0.80;;;19.40;1.00;;;;;;5078341;28;20665;-71
2022/07/15 05:41:08;;;;;;;1.23;0.70;;;19.50;1.00;;;;;;5074327;28;20482;-75
2022/07/15 05:43:35;;;;;;;0.80;0.60;;;19.60;1.00;;;;;;5075535;28;20901;-71
2022/07/15 05:46:02;;;;;;;0.90;0.70;;;19.70;1.00;;;;;;5091158;28;20453;-71
2022/07/15 05:48:30;;;;;;;1.03;0.50;;;19.60;1.00;;;;;;5091280;28;20780;-71
2022/07/15 05:50:57;;;;;;;0.90;0.70;;;19.60;1.00;;;;;;5095969;28;20453;-71
2022/07/15 05:53:24;;;;;;;0.73;0.50;;;19.70;1.00;;;;;;5085735;28;20445;-71
2022/07/15 05:55:52;;;;;;;1.53;0.80;;;19.80;1.00;;;;;;5084546;28;20482;-74
2022/07/15 05:58:20;;;;;;;1.67;0.70;;;19.80;1.00;;;;;;5091421;28;20466;-74
2022/07/15 06:00:47;;;;;;;2.20;0.70;;;19.70;1.00;;;;;;5091681;28;20441;-74
2022/07/15 06:03:13;;;;;;;1.57;0.60;;;19.70;1.00;;;;;;5096210;28;20874;-74
2022/07/15 06:05:40;;;;;;;2.73;0.50;;;19.70;1.00;;;;;;5099152;28;20454;-74
2022/07/15 06:08:08;;;;;;;2.73;0.60;;;19.80;1.00;;;;;;5101060;28;20536;-74
2022/07/15 06:10:35;;;;;;;0.80;0.60;;;20.00;1.00;;;;;;5089746;28;20870;-74
2022/07/15 06:13:03;;;;;;;1.03;0.50;;;20.10;1.00;;;;;;5098932;28;20489;-74
2022/07/15 06:15:30;;;;;;;1.60;0.60;;;20.20;1.00;;;;;;5091077;28;20542;-73
2022/07/15 06:17:57;;;;;;;0.93;0.67;;;20.30;1.00;;;;;;5091046;28;20442;-72
2022/07/15 06:20:25;;;;;;;1.17;0.50;;;20.30;1.00;;;;;;5098886;28;20811;-73
2022/07/15 06:22:52;;;;;;;0.70;0.50;;;20.50;1.00;;;;;;5095751;28;20446;-73
2022/07/15 06:25:20;;;;;;;1.13;0.53;;;20.60;1.00;;;;;;5078907;28;21044;-72
2022/07/15 06:27:48;;;;;;;1.63;0.57;;;20.50;1.00;;;;;;5089842;28;20503;-73
2022/07/15 06:30:16;;;;;;;0.70;0.43;;;20.50;1.00;;;;;;5094003;28;20453;-73
2022/07/15 06:32:44;;;;;;;1.23;0.50;;;20.60;1.00;;;;;;5081478;28;20814;-73
2022/07/15 06:35:12;;;;;;;0.80;0.50;;;20.80;1.00;;;;;;5092830;28;20533;-73
2022/07/15 06:37:39;;;;;;;1.73;0.50;;;20.90;1.00;;;;;;5078095;28;20482;-72
2022/07/15 06:40:07;;;;;;;2.60;0.50;;;20.90;1.00;;;;;;5091817;28;20850;-73
2022/07/15 06:42:34;;;;;;;0.80;0.50;;;20.80;1.00;;;;;;5093874;28;20920;-72
2022/07/15 06:45:01;;;;;;;0.60;0.43;;;20.80;1.00;;;;;;5093109;28;20482;-74
2022/07/15 06:47:29;;;;;;;0.80;0.50;;;20.60;1.00;;;;;;5077672;28;20457;-74
2022/07/15 06:49:56;;;;;;;1.83;0.50;;;20.70;1.00;;;;;;5090774;28;20457;-74
2022/07/15 06:52:23;;;;;;;0.87;0.50;;;20.80;1.00;;;;;;5097767;28;20472;-73
2022/07/15 06:54:50;;;;;;;0.80;0.50;;;20.90;1.00;;;;;;5095206;28;20481;-73
2022/07/15 06:57:18;;;;;;;1.33;0.40;;;20.90;1.00;;;;;;5091537;28;20524;-73
2022/07/15 06:59:45;;;;;;;1.70;1.00;;;21.00;1.00;;;;;;5081041;28;20457;-73
2022/07/15 07:02:12;;;;;;;1.00;0.50;;;21.10;1.00;;;;;;5097496;28;20445;-73
2022/07/15 07:04:42;;;;;;;0.60;0.40;;;21.40;1.00;;;;;;5097260;28;20481;-73
2022/07/15 07:07:09;;;;;;;0.70;0.60;;;21.40;1.00;;;;;;5078086;28;20445;-73
2022/07/15 07:09:36;;;;;;;1.30;0.40;;;21.30;1.00;;;;;;5087354;28;20545;-73
2022/07/15 07:12:03;;;;;;;0.97;0.50;;;21.30;1.00;;;;;;5098857;28;20489;-74
2022/07/15 07:14:30;;;;;;;1.17;0.40;;;21.50;1.00;;;;;;5084856;28;20442;-74
2022/07/15 07:16:57;;;;;;;0.60;0.40;;;21.60;1.00;;;;;;5095582;28;20514;-74
2022/07/15 07:19:24;;;;;;;2.20;0.50;;;21.50;1.00;;;;;;5098863;28;20523;-73
2022/07/15 07:21:52;;;;;;;0.50;0.33;;;21.60;1.00;;;;;;5099324;28;20476;-74
2022/07/15 07:24:19;;;;;;;0.53;0.40;;;21.80;1.00;;;;;;5091432;28;20920;-73
2022/07/15 07:26:46;;;;;;;0.80;0.50;;;21.90;1.00;;;;;;5099164;28;20478;-73
2022/07/15 07:29:16;;;;;;;0.77;0.60;;;21.80;1.00;;;;;;5098204;28;20467;-73
2022/07/15 07:31:43;;;;;;;1.73;0.50;;;21.80;1.00;;;;;;5095206;28;20537;-73
2022/07/15 07:34:10;;;;;;;0.70;0.50;;;21.90;1.00;;;;;;5089637;28;20456;-73
2022/07/15 07:36:37;;;;;;;2.60;0.50;;;22.00;1.00;;;;;;5097683;28;20476;-73
2022/07/15 07:39:05;;;;;;;0.80;0.53;;;21.90;1.00;;;;;;5098313;28;20453;-73
2022/07/15 07:44:16;;;;;;;0.77;0.60;;;22.10;1.00;;;;;;5102941;28;20452;-73
2022/07/15 07:46:43;;;;;;;1.37;0.50;;;22.20;1.00;;;;;;5114318;28;20747;-73
2022/07/15 07:49:12;;;;;;;0.90;0.50;;;22.30;1.00;;;;;;5103917;28;20462;-74
2022/07/15 07:51:40;;;;;;;0.70;0.43;;;22.40;1.00;;;;;;5113639;28;20520;-74
2022/07/15 07:54:08;;;;;;;0.70;0.50;;;22.50;1.00;;;;;;5097879;28;20441;-74
2022/07/15 07:56:36;;;;;;;1.00;0.60;;;22.60;1.00;;;;;;5099235;28;20533;-74
2022/07/15 07:59:03;;;;;;;0.60;0.50;;;22.70;1.00;;;;;;5118991;28;20447;-73
2022/07/15 08:01:30;;;;;;;1.37;0.40;;;22.70;1.00;;;;;;5113455;28;20442;-73
2022/07/15 08:03:57;;;;;;;0.60;0.40;;;22.80;1.00;;;;;;5107186;28;21029;-73
2022/07/15 08:06:23;;;;;;;1.10;0.40;;;22.70;1.00;;;;;;5109403;28;20473;-72
2022/07/15 08:08:51;;;;;;;1.27;0.50;;;22.60;1.00;;;;;;5114988;28;20527;-73
2022/07/15 08:11:20;;;;;;;0.80;0.60;;;22.50;1.00;;;;;;5111379;28;20906;-72
2022/07/15 08:13:47;;;;;;;1.03;0.43;;;22.70;1.00;;;;;;5116709;28;20919;-72
2022/07/15 08:16:14;;;;;;;1.57;0.50;;;22.80;1.00;;;;;;5117237;28;20556;-72
2022/07/15 08:18:41;;;;;;;0.60;0.40;;;22.80;1.00;;;;;;5111824;28;20456;-73
2022/07/15 08:21:08;;;;;;;1.70;0.40;;;22.90;1.00;;;;;;5111200;28;20461;-73
2022/07/15 08:23:35;;;;;;;0.80;0.40;;;23.20;1.00;;;;;;5113648;28;20904;-73
2022/07/15 08:26:04;;;;;;;0.80;0.40;;;23.30;1.00;;;;;;5116815;28;20453;-73
2022/07/15 08:28:32;;;;;;;0.60;0.40;;;23.50;1.00;;;;;;5098439;28;20473;-74
2022/07/15 08:30:59;;;;;;;0.73;0.50;;;23.50;1.00;;;;;;5108815;28;20476;-78
2022/07/15 08:33:26;;;;;;;0.70;0.50;;;23.60;1.00;;;;;;5107928;28;20442;-80
2022/07/15 08:35:56;;;;;;;0.60;0.43;;;23.70;1.00;;;;;;5095497;28;20448;-73
2022/07/15 08:38:33;;;;;;;0.50;0.33;;;23.60;1.00;;;;;;5109464;28;20567;-73
2022/07/15 08:41:02;;;;;;;0.80;0.50;;;23.60;1.00;;;;;;5096419;28;20473;-73
2022/07/15 08:43:35;;;;;;;1.00;0.53;;;23.50;1.00;;;;;;5104297;28;20448;-73
2022/07/15 08:48:52;;;;;;;1.27;0.60;;;23.60;1.00;;;;;;5094063;28;20494;-72
2022/07/15 08:51:24;;;;;;;1.27;0.50;;;23.70;1.00;;;;;;5108599;28;20442;-73
2022/07/15 08:54:02;;;;;;;1.33;0.60;;;23.90;1.00;;;;;;5095989;28;20856;-72
2022/07/15 08:56:32;;;;;;;0.60;0.50;;;23.90;1.00;;;;;;5110848;28;20908;-74
2022/07/15 08:59:02;;;;;;;0.73;0.50;;;23.80;1.00;;;;;;5075948;28;20442;-73
2022/07/15 09:01:32;;;;;;;1.53;0.50;;;23.80;1.00;;;;;;5102652;28;20451;-73
2022/07/15 09:04:03;;;;;;;1.47;0.50;;;23.80;1.00;;;;;;5115063;28;20450;-74
2022/07/15 09:06:34;;;;;;;0.87;0.50;;;23.80;1.00;;;;;;5098174;28;20442;-75
2022/07/15 09:09:26;;;;;;;1.20;0.60;;;23.90;1.00;;;;;;5115771;28;20926;-75
2022/07/15 09:12:03;;;;;;;0.73;0.50;;;24.20;1.00;;;;;;5104646;28;20445;-74
2022/07/15 09:14:32;;;;;;;2.27;0.50;;;24.50;1.00;;;;;;5115218;28;20472;-74
2022/07/15 09:17:19;;;;;;;1.10;0.50;;;24.70;1.00;;;;;;5107609;28;20465;-76
2022/07/15 09:20:00;;;;;;;2.13;0.50;;;24.50;1.00;;;;;;5107440;28;20506;-76
2022/07/15 09:22:29;;;;;;;0.90;0.50;;;24.30;1.00;;;;;;5113516;28;20452;-74
2022/07/15 09:25:06;;;;;;;0.70;0.50;;;24.30;1.00;;;;;;5081846;28;20452;-76
2022/07/15 09:27:36;;;;;;;1.40;0.50;;;24.50;1.00;;;;;;5106732;28;21015;-74
2022/07/15 09:33:36;;;;;;;1.00;0.60;;;24.70;1.00;;;;;;5106184;28;20587;-72
2022/07/15 09:36:10;;;;;;;0.80;0.40;;;24.70;1.00;;;;;;5108179;28;20495;-72
2022/07/15 09:38:56;;;;;;;0.80;0.50;;;24.80;1.00;;;;;;5096626;28;20918;-71
2022/07/15 09:41:28;;;;;;;1.37;0.40;;;24.90;1.00;;;;;;5091705;28;20468;-72
2022/07/15 09:44:03;;;;;;;1.23;0.50;;;25.00;1.00;;;;;;5093997;28;20536;-73
2022/07/15 09:46:41;;;;;;;1.67;0.60;;;25.20;1.00;;;;;;5074581;28;20438;-72
2022/07/15 09:49:09;;;;;;;1.27;0.57;;;25.30;1.00;;;;;;5085363;28;20434;-73
2022/07/15 09:51:45;;;;;;;1.40;0.57;;;25.10;1.00;;;;;;5081008;28;20465;-72
2022/07/15 09:54:13;;;;;;;1.10;0.50;;;25.00;1.00;;;;;;5089918;28;20529;-73
2022/07/15 09:56:40;;;;;;;2.50;0.50;;;25.20;1.00;;;;;;5073680;28;21066;-72
2022/07/15 09:59:08;;;;;;;1.53;0.70;;;25.50;1.00;;;;;;5085202;28;20470;-73
2022/07/15 10:01:36;;;;;;;0.60;0.50;;;25.50;1.00;;;;;;5071145;28;20745;-72
2022/07/15 10:04:07;;;;;;;1.70;1.00;;;25.30;1.00;;;;;;5071494;28;20450;-72
2022/07/15 10:06:39;;;;;;;0.90;0.50;;;25.70;1.00;;;;;;5088040;28;20484;-73
2022/07/15 10:09:09;;;;;;;1.37;0.40;;;26.00;1.00;;;;;;5071745;28;20521;-73
2022/07/15 10:11:40;;;;;;;0.70;0.50;;;25.90;1.00;;;;;;5079574;28;20453;-74
2022/07/15 10:14:35;;;;;;;0.60;0.40;;;25.80;1.00;;;;;;5091653;28;20434;-73
2022/07/15 10:17:42;;;;;;;0.90;0.50;;;25.90;1.00;;;;;;5076841;28;20517;-73
2022/07/15 10:20:49;;;;;;;1.47;0.60;;;25.80;1.00;;;;;;5008490;28;20987;-73
2022/07/15 10:23:40;;;;;;;1.43;0.60;;;25.70;1.00;;;;;;5077742;28;20465;-73
2022/07/15 10:26:23;;;;;;;0.70;0.60;;;25.40;1.00;;;;;;5075184;28;20486;-72
2022/07/15 10:28:55;;;;;;;0.67;0.47;;;25.40;1.00;;;;;;5092047;28;20503;-73
2022/07/15 10:31:25;;;;;;;0.70;0.53;;;25.20;1.00;;;;;;5092727;28;20437;-73
2022/07/15 10:34:17;;;;;;;2.53;0.50;;;25.30;1.00;;;;;;5081269;28;20439;-73
2022/07/15 10:36:56;;;;;;;0.60;0.40;;;25.70;1.00;;;;;;5065848;28;20948;-73
2022/07/15 10:39:28;;;;;;;1.53;0.57;;;26.40;1.00;;;;;;5080414;28;20465;-73
2022/07/15 10:41:57;;;;;;;0.70;0.60;;;27.10;1.00;;;;;;5093785;28;20452;-73
2022/07/15 10:44:25;;;;;;;0.63;0.50;;;27.60;1.00;;;;;;5075858;28;20769;-72
2022/07/15 10:47:21;;;;;;;1.10;0.50;;;27.60;1.00;;;;;;5088484;28;20499;-73
2022/07/15 10:49:49;;;;;;;0.97;0.50;;;27.90;1.00;;;;;;5072664;28;20556;-73
2022/07/15 10:52:19;;;;;;;1.30;0.50;;;28.30;1.00;;;;;;5089082;28;20530;-74
2022/07/15 10:55:04;;;;;;;1.00;0.57;;;28.40;1.00;;;;;;5083848;28;20974;-73
2022/07/15 10:57:52;;;;;;;1.10;0.70;;;28.30;1.00;;;;;;5089583;28;21016;-73
2022/07/15 11:00:32;;;;;;;0.90;0.60;;;28.20;1.00;;;;;;5078289;28;20453;-73
2022/07/15 11:03:08;;;;;;;0.90;0.67;;;28.50;1.00;;;;;;5076792;28;20542;-74
2022/07/15 11:05:41;;;;;;;1.40;0.50;;;28.40;1.00;;;;;;5076579;28;20457;-73
2022/07/15 11:08:45;;;;;;;0.80;0.53;;;28.10;1.00;;;;;;5076545;28;20486;-73
2022/07/15 11:12:13;;;;;;;0.60;0.50;;;27.70;1.00;;;;;;5077214;28;20458;-74
2022/07/15 11:17:41;;;;;;;0.80;0.70;;;28.80;1.00;;;;;;5095599;28;20477;-74
2022/07/15 11:20:15;;;;;;;0.90;0.60;;;28.70;1.00;;;;;;5096744;28;20464;-73
2022/07/15 11:22:45;;;;;;;1.97;0.97;;;29.00;1.00;;;;;;5097414;28;20450;-74
2022/07/15 11:25:18;;;;;;;2.50;0.80;;;29.50;1.00;;;;;;5097483;28;20454;-74
2022/07/15 11:27:57;;;;;;;0.70;0.50;;;30.00;1.00;;;;;;5096286;28;20541;-73
2022/07/15 11:30:26;;;;;;;0.80;0.50;;;30.20;1.00;;;;;;5096520;28;20467;-74
2022/07/15 11:32:57;;;;;;;0.83;0.50;;;30.00;1.00;;;;;;5097029;28;20485;-74
2022/07/15 11:35:25;;;;;;;0.70;0.50;;;30.30;1.00;;;;;;5093053;28;20478;-74
2022/07/15 11:38:02;;;;;;;0.70;0.50;;;30.40;1.00;;;;;;5082581;28;20747;-73
2022/07/15 11:46:05;;;;;;;1.77;0.63;;;30.00;1.00;;;;;;5113159;28;20444;-74
2022/07/15 11:48:37;;;;;;;1.10;0.50;;;29.70;99.90;;;;;;5103219;28;20532;-73
2022/07/15 11:51:05;;;;;;;1.10;0.50;;;30.00;1.00;;;;;;5106532;28;21091;-75
2022/07/15 11:53:37;;;;;;;1.23;0.60;;;29.90;99.90;;;;;;5092748;28;20443;-74
2022/07/15 11:56:05;;;;;;;0.83;0.60;;;29.30;99.90;;;;;;5097241;28;20465;-73
2022/07/15 11:58:35;;;;;;;0.70;0.50;;;29.30;99.90;;;;;;5096421;28;20474;-75
2022/07/15 12:01:07;;;;;;;0.60;0.50;;;29.40;99.90;;;;;;5097449;28;21063;-75
2022/07/15 12:03:37;;;;;;;1.17;0.50;;;30.00;99.90;;;;;;5097271;28;20471;-73
2022/07/15 12:06:07;;;;;;;0.60;0.50;;;29.90;99.90;;;;;;5108277;28;20449;-74
2022/07/15 12:08:37;;;;;;;1.07;0.60;;;30.10;99.90;;;;;;5097704;28;20448;-73
2022/07/15 12:11:13;;;;;;;0.73;0.50;;;30.30;99.90;;;;;;5115975;28;20459;-73
2022/07/15 12:13:45;;;;;;;0.90;0.57;;;30.50;99.90;;;;;;5110903;28;20445;-72
2022/07/15 12:16:14;;;;;;;1.33;0.57;;;30.40;99.90;;;;;;5116760;28;20482;-73
2022/07/15 12:18:42;;;;;;;0.50;0.50;;;31.00;99.90;;;;;;5117022;28;20487;-73
2022/07/15 12:21:10;;;;;;;0.67;0.50;;;31.40;99.90;;;;;;5116543;28;20805;-73
2022/07/15 12:23:37;;;;;;;0.63;0.50;;;31.60;99.90;;;;;;5116148;28;20495;-73
2022/07/15 12:29:02;;;;;;;0.73;0.60;;;30.60;99.90;;;;;;5117082;28;20433;-74
2022/07/15 12:31:33;;;;;;;1.20;0.57;;;30.70;99.90;;;;;;5117408;28;20505;-74
2022/07/15 12:34:01;;;;;;;1.00;0.50;;;31.10;99.90;;;;;;5116451;28;20730;-75
2022/07/15 12:36:31;;;;;;;0.63;0.60;;;31.10;99.90;;;;;;5116773;28;21102;-72
2022/07/15 12:39:07;;;;;;;0.73;0.50;;;31.10;99.90;;;;;;5117287;28;20468;-74
2022/07/15 12:41:37;;;;;;;0.70;0.60;;;31.00;99.90;;;;;;5117173;28;20776;-74
2022/07/15 12:44:05;;;;;;;0.70;0.50;;;30.90;99.90;;;;;;5117921;28;20515;-74
2022/07/15 12:46:58;;;;;;;0.70;0.50;;;31.10;99.90;;;;;;5117036;28;20506;-72
2022/07/15 12:49:50;;;;;;;0.60;0.50;;;30.90;99.90;;;;;;5115969;28;20793;-72
2022/07/15 12:52:20;;;;;;;0.80;0.50;;;30.70;99.90;;;;;;5115466;28;20495;-73
2022/07/15 12:54:48;;;;;;;2.50;0.60;;;30.40;99.90;;;;;;5097958;28;20547;-73
2022/07/15 12:57:33;;;;;;;2.23;0.70;;;29.90;99.90;;;;;;5112289;28;20449;-72
2022/07/15 13:00:05;;;;;;;0.80;0.60;;;29.80;99.90;;;;;;5115309;28;20456;-74
2022/07/15 13:02:56;;;;;;;1.83;0.70;;;30.10;99.90;;;;;;5097814;28;20443;-73
2022/07/15 13:05:23;;;;;;;0.87;0.63;;;30.60;99.90;;;;;;5114014;28;20466;-73
2022/07/15 13:07:50;;;;;;;3.33;0.60;;;30.30;99.90;;;;;;5115015;28;20896;-73
2022/07/15 13:10:18;;;;;;;0.70;0.50;;;30.30;99.90;;;;;;5115186;28;20877;-73
2022/07/15 13:12:45;;;;;;;0.90;0.60;;;30.60;99.90;;;;;;5115488;28;20888;-73
2022/07/15 13:15:12;;;;;;;1.33;0.47;;;30.60;99.90;;;;;;5115569;28;20453;-73
2022/07/15 13:17:40;;;;;;;1.03;0.50;;;30.30;99.90;;;;;;5115570;28;20531;-73
2022/07/15 13:20:09;;;;;;;0.60;0.50;;;30.40;99.90;;;;;;5115046;28;20448;-73
2022/07/15 13:22:36;;;;;;;0.87;0.60;;;30.40;99.90;;;;;;5114544;28;20546;-74
2022/07/15 13:25:03;;;;;;;0.77;0.60;;;30.30;99.90;;;;;;5115450;28;20523;-73
2022/07/15 13:27:30;;;;;;;1.10;0.73;;;30.70;99.90;;;;;;5114887;28;20639;-73
2022/07/15 13:29:58;;;;;;;1.20;0.50;;;30.10;99.90;;;;;;5115077;28;20525;-73
2022/07/15 13:32:30;;;;;;;1.10;0.80;;;29.80;99.90;;;;;;5115338;28;20449;-73